createdAt,value
2023-03-15T00:02:07.346Z,2.29
2023-03-15T00:07:09.118Z,2.29
2023-03-15T00:12:12.263Z,2.11
2023-03-15T00:17:13.898Z,2.01
2023-03-15T00:22:15.686Z,1.92
2023-03-15T00:27:17.331Z,1.87
2023-03-15T00:32:18.950Z,1.81
2023-03-15T00:37:21.602Z,1.80
2023-03-15T00:42:27.531Z,1.87
2023-03-15T00:47:29.200Z,1.77
2023-03-15T00:52:36.073Z,1.75
2023-03-15T00:57:37.695Z,1.69
2023-03-15T01:02:39.634Z,1.82
2023-03-15T01:07:41.354Z,1.88
2023-03-15T01:12:43.118Z,1.93
2023-03-15T01:17:44.733Z,1.98
2023-03-15T01:22:46.527Z,1.96
2023-03-15T01:27:49.564Z,1.95
2023-03-15T01:32:51.227Z,1.83
2023-03-15T01:37:53.237Z,1.88
2023-03-15T01:43:04.529Z,1.66
2023-03-15T01:48:06.516Z,1.38
2023-03-15T01:53:08.535Z,1.39
2023-03-15T01:58:12.727Z,1.37
2023-03-15T02:03:21.692Z,1.45
2023-03-15T02:08:29.316Z,1.37
2023-03-15T02:13:33.619Z,1.21
2023-03-15T02:18:41.294Z,1.03
2023-03-15T02:23:47.294Z,0.95
2023-03-15T02:28:50.117Z,1.15
2023-03-15T02:33:57.455Z,1.07
2023-03-15T02:38:59.490Z,0.86
2023-03-15T02:44:06.498Z,1.03
2023-03-15T02:49:09.040Z,1.05
2023-03-15T02:54:10.760Z,0.84
2023-03-15T02:59:12.913Z,0.95
2023-03-15T03:04:14.818Z,0.91
2023-03-15T03:09:16.972Z,1.01
2023-03-15T03:14:18.759Z,1.14
2023-03-15T03:19:25.618Z,0.93
2023-03-15T03:24:27.690Z,0.90
2023-03-15T03:29:29.892Z,1.22
2023-03-15T03:34:35.977Z,1.22
2023-03-15T03:39:37.654Z,1.17
2023-03-15T03:44:40.541Z,0.84
2023-03-15T03:49:42.938Z,0.77
2023-03-15T03:54:44.547Z,0.72
2023-03-15T03:59:46.362Z,0.92
2023-03-15T04:04:50.434Z,0.96
2023-03-15T04:09:55.095Z,1.02
2023-03-15T04:14:56.874Z,1.06
2023-03-15T04:20:02.069Z,1.09
2023-03-15T04:25:07.384Z,1.12
2023-03-15T04:30:29.703Z,1.15
2023-03-15T04:35:47.309Z,1.12
2023-03-15T04:41:11.059Z,1.21
2023-03-15T04:46:34.021Z,1.25
2023-03-15T04:52:11.198Z,1.21
2023-03-15T04:57:32.619Z,1.22
2023-03-15T05:03:06.038Z,1.22
2023-03-15T05:08:20.967Z,1.40
2023-03-15T05:13:41.020Z,1.32
2023-03-15T05:18:51.158Z,1.38
2023-03-15T05:24:09.594Z,1.32
2023-03-15T05:29:27.574Z,1.35
2023-03-15T05:34:38.345Z,1.45
2023-03-15T05:39:52.759Z,1.50
2023-03-15T05:45:14.786Z,1.56
2023-03-15T05:50:39.430Z,1.51
2023-03-15T05:55:59.940Z,1.61
2023-03-15T06:01:21.291Z,1.63
2023-03-15T06:06:37.089Z,1.68
2023-03-15T06:11:41.902Z,1.80
2023-03-15T06:16:47.372Z,2.00
2023-03-15T06:21:49.177Z,2.14
2023-03-15T06:27:02.771Z,2.29
2023-03-15T06:32:05.467Z,2.35
2023-03-15T06:37:09.359Z,2.70
2023-03-15T06:42:13.853Z,2.65
2023-03-15T06:47:15.622Z,3.44
2023-03-15T06:52:18.053Z,3.31
2023-03-15T06:57:19.734Z,3.48
2023-03-15T07:02:21.379Z,3.49
2023-03-15T07:07:22.996Z,3.92
2023-03-15T07:12:24.674Z,4.09
2023-03-15T07:17:26.351Z,3.85
2023-03-15T07:22:28.058Z,4.24
2023-03-15T07:27:30.295Z,5.65
2023-03-15T07:32:32.889Z,7.90
2023-03-15T07:37:34.818Z,9.27
2023-03-15T07:42:37.337Z,10.66
2023-03-15T07:47:38.974Z,9.94
2023-03-15T07:52:41.045Z,9.22
2023-03-15T07:57:42.672Z,9.46
2023-03-15T08:02:44.796Z,11.02
2023-03-15T08:07:48.276Z,11.07
2023-03-15T08:12:49.927Z,9.38
2023-03-15T08:17:51.618Z,10.76
2023-03-15T08:22:53.417Z,9.72
2023-03-15T08:27:55.139Z,9.55
2023-03-15T08:32:56.839Z,6.35
2023-03-15T08:37:58.510Z,5.86
2023-03-15T08:43:00.169Z,5.26
2023-03-15T08:48:02.281Z,5.22
2023-03-15T08:53:03.915Z,5.06
2023-03-15T08:58:05.597Z,4.32
2023-03-15T09:03:07.222Z,3.44
2023-03-15T09:08:08.914Z,3.19
2023-03-15T09:13:11.205Z,3.57
2023-03-15T09:18:12.896Z,3.88
2023-03-15T09:23:14.931Z,4.57
2023-03-15T09:28:16.608Z,5.08
2023-03-15T09:33:18.490Z,5.25
2023-03-15T09:38:22.158Z,4.88
2023-03-15T09:43:35.791Z,4.95
2023-03-15T09:48:59.938Z,5.22
2023-03-15T09:54:20.462Z,4.83
2023-03-15T09:59:34.748Z,5.04
2023-03-15T10:04:40.607Z,5.27
2023-03-15T10:09:43.566Z,4.99
2023-03-15T10:15:22.300Z,4.87
2023-03-15T10:20:34.285Z,4.65
2023-03-15T10:25:37.562Z,4.60
2023-03-15T10:30:44.749Z,4.94
2023-03-15T10:35:46.470Z,4.98
2023-03-15T10:40:49.380Z,4.78
2023-03-15T10:46:11.545Z,4.88
2023-03-15T10:51:27.112Z,5.04
2023-03-15T10:56:35.323Z,4.63
2023-03-15T11:01:37.612Z,4.56
2023-03-15T11:06:49.427Z,4.76
2023-03-15T11:11:53.303Z,4.30
2023-03-15T11:16:57.046Z,4.59
2023-03-15T11:22:01.379Z,4.28
2023-03-15T11:27:09.900Z,4.38
2023-03-15T11:32:15.676Z,4.51
2023-03-15T11:37:25.526Z,4.41
2023-03-15T11:42:36.866Z,4.12
2023-03-15T11:47:54.859Z,4.25
2023-03-15T11:53:02.930Z,4.23
2023-03-15T11:58:42.508Z,4.91
2023-03-15T12:03:45.110Z,5.11
2023-03-15T12:08:52.869Z,5.54
2023-03-15T12:13:57.520Z,6.56
2023-03-15T12:19:01.403Z,6.36
2023-03-15T12:24:06.712Z,6.64
2023-03-15T12:29:17.912Z,7.37
2023-03-15T12:34:31.851Z,6.84
2023-03-15T12:39:40.846Z,5.88
2023-03-15T12:44:43.356Z,5.22
2023-03-15T12:49:46.245Z,4.95
2023-03-15T12:54:54.730Z,4.93
2023-03-15T12:59:59.071Z,4.88
2023-03-15T13:05:13.877Z,4.52
2023-03-15T13:10:31.135Z,4.93
2023-03-15T13:15:57.328Z,5.40
2023-03-15T13:21:15.592Z,4.68
2023-03-15T13:26:21.587Z,5.78
2023-03-15T13:31:25.377Z,6.37
2023-03-15T13:36:44.931Z,7.90
2023-03-15T13:41:47.839Z,8.41
2023-03-15T13:46:50.934Z,7.42
2023-03-15T13:51:53.459Z,7.36
2023-03-15T13:57:12.991Z,5.78
2023-03-15T14:02:21.066Z,5.29
2023-03-15T14:07:46.603Z,5.21
2023-03-15T14:12:49.753Z,5.60
2023-03-15T14:17:57.620Z,5.96
2023-03-15T14:23:01.478Z,6.22
2023-03-15T14:28:05.546Z,6.77
2023-03-15T14:33:08.853Z,6.36
2023-03-15T14:38:23.584Z,6.03
2023-03-15T14:43:25.203Z,6.17
2023-03-15T14:48:28.944Z,6.86
2023-03-15T14:53:35.814Z,6.03
2023-03-15T14:58:37.589Z,6.00
2023-03-15T15:03:53.635Z,5.79
2023-03-15T15:08:58.869Z,5.66
2023-03-15T15:14:00.880Z,6.27
2023-03-15T15:19:02.744Z,6.33
2023-03-15T15:24:11.596Z,5.78
2023-03-15T15:29:14.935Z,5.68
2023-03-15T15:34:16.552Z,5.64
2023-03-15T15:39:23.736Z,6.12
2023-03-15T15:44:26.094Z,6.13
2023-03-15T15:49:28.217Z,5.87
2023-03-15T15:54:35.778Z,5.94
2023-03-15T15:59:37.454Z,6.06
2023-03-15T16:04:41.711Z,5.92
2023-03-15T16:09:46.407Z,5.67
2023-03-15T16:14:48.116Z,5.52
2023-03-15T16:19:50.650Z,5.30
2023-03-15T16:24:54.805Z,5.24
2023-03-15T16:29:56.588Z,5.02
2023-03-15T16:34:58.220Z,4.97
2023-03-15T16:40:01.662Z,4.77
2023-03-15T16:45:12.500Z,4.72
2023-03-15T16:50:14.640Z,4.47
2023-03-15T16:55:19.991Z,4.40
2023-03-15T17:00:22.243Z,4.27
2023-03-15T17:05:24.884Z,4.04
2023-03-15T17:10:32.733Z,3.99
2023-03-15T17:15:34.360Z,4.06
2023-03-15T17:20:35.984Z,3.80
2023-03-15T17:25:38.895Z,3.68
2023-03-15T17:30:41.051Z,3.61
2023-03-15T17:35:54.022Z,3.51
2023-03-15T17:40:55.992Z,3.52
2023-03-15T17:45:57.713Z,3.41
2023-03-15T17:50:59.385Z,3.44
2023-03-15T17:56:01.060Z,3.49
2023-03-15T18:01:04.514Z,3.19
2023-03-15T18:06:06.569Z,2.85
2023-03-15T18:11:17.200Z,2.68
2023-03-15T18:16:18.972Z,2.56
2023-03-15T18:21:24.322Z,2.41
2023-03-15T18:26:25.973Z,2.59
2023-03-15T18:31:27.667Z,2.55
2023-03-15T18:36:29.902Z,2.38
2023-03-15T18:41:31.544Z,2.35
2023-03-15T18:46:33.424Z,2.35
2023-03-15T18:51:36.963Z,2.34
2023-03-15T18:56:38.657Z,2.33
2023-03-15T19:01:40.339Z,1.86
2023-03-15T19:06:41.978Z,1.64
2023-03-15T19:11:43.620Z,1.42
2023-03-15T19:16:45.389Z,1.29
2023-03-15T19:21:47.169Z,1.06
2023-03-15T19:26:48.813Z,1.03
2023-03-15T19:31:50.516Z,0.99
2023-03-15T19:36:52.301Z,0.92
2023-03-15T19:41:54.112Z,0.95
2023-03-15T19:46:56.412Z,0.81
2023-03-15T19:51:58.045Z,0.51
2023-03-15T19:57:00.946Z,0.41
2023-03-15T20:02:02.695Z,0.42
2023-03-15T20:07:04.903Z,0.22
2023-03-15T20:12:07.757Z,0.24
2023-03-15T20:17:09.399Z,0.29
2023-03-15T20:22:11.027Z,0.25
2023-03-15T20:27:13.343Z,0.24
2023-03-15T20:32:15.029Z,0.21
2023-03-15T20:37:16.729Z,0.27
2023-03-15T20:42:19.488Z,0.06
2023-03-15T20:47:21.136Z,0.07
2023-03-15T20:52:22.767Z,0.09
2023-03-15T20:57:24.422Z,-0.03
2023-03-15T21:02:26.049Z,0.17
2023-03-15T21:07:27.713Z,-0.01
2023-03-15T21:12:30.226Z,0.02
2023-03-15T21:17:31.968Z,0.06
2023-03-15T21:22:33.862Z,0.00
2023-03-15T21:27:35.591Z,-0.04
2023-03-15T21:32:38.373Z,-0.17
2023-03-15T21:37:40.323Z,-0.17
2023-03-15T21:42:43.582Z,-0.14
2023-03-15T21:47:47.060Z,-0.22
2023-03-15T21:52:49.014Z,-0.13
2023-03-15T21:57:51.853Z,-0.32
2023-03-15T22:02:55.626Z,-0.51
2023-03-15T22:07:57.434Z,-0.47
2023-03-15T22:12:59.062Z,-0.42
2023-03-15T22:18:02.274Z,-0.46
2023-03-15T22:23:04.472Z,-0.54
2023-03-15T22:28:06.529Z,-0.65
2023-03-15T22:33:08.788Z,-0.71
2023-03-15T22:38:10.585Z,-0.67
2023-03-15T22:43:12.199Z,-0.86
2023-03-15T22:48:13.833Z,-0.71
2023-03-15T22:53:15.437Z,-0.71
2023-03-15T22:58:17.045Z,-0.67
2023-03-15T23:03:19.400Z,-0.76
2023-03-15T23:08:22.818Z,-0.77
2023-03-15T23:13:24.621Z,-0.66
2023-03-15T23:18:26.253Z,-0.84
2023-03-15T23:23:27.862Z,-0.76
2023-03-15T23:28:29.491Z,-0.68
2023-03-15T23:33:34.250Z,-0.73
2023-03-15T23:38:35.912Z,-0.64
2023-03-15T23:43:37.523Z,-0.62
2023-03-15T23:48:39.154Z,-0.71
2023-03-15T23:53:40.764Z,-0.71
2023-03-15T23:58:42.394Z,-0.62
